sensor_id;sensor_type;location;lat;lon;timestamp;P1;durP1;ratioP1;P2;durP2;ratioP2
21110;SDS011;10713;51.912;4.494;2022-12-07T00:00:40;7.47;;;2.00;;
21110;SDS011;10713;51.912;4.494;2022-12-07T00:03:05;8.98;;;2.10;;
21110;SDS011;10713;51.912;4.494;2022-12-07T00:05:31;6.68;;;1.77;;
21110;SDS011;10713;51.912;4.494;2022-12-07T00:07:56;7.40;;;1.80;;
21110;SDS011;10713;51.912;4.494;2022-12-07T00:10:21;8.82;;;1.50;;
21110;SDS011;10713;51.912;4.494;2022-12-07T00:12:46;6.85;;;1.30;;
21110;SDS011;10713;51.912;4.494;2022-12-07T00:15:12;8.70;;;1.55;;
21110;SDS011;10713;51.912;4.494;2022-12-07T00:17:37;9.57;;;1.58;;
21110;SDS011;10713;51.912;4.494;2022-12-07T00:20:03;8.52;;;1.50;;
21110;SDS011;10713;51.912;4.494;2022-12-07T00:22:28;6.50;;;1.50;;
21110;SDS011;10713;51.912;4.494;2022-12-07T00:24:54;10.65;;;1.25;;
21110;SDS011;10713;51.912;4.494;2022-12-07T00:27:19;5.18;;;1.25;;
21110;SDS011;10713;51.912;4.494;2022-12-07T00:29:44;4.70;;;1.13;;
21110;SDS011;10713;51.912;4.494;2022-12-07T00:32:10;3.38;;;1.10;;
21110;SDS011;10713;51.912;4.494;2022-12-07T00:34:35;7.40;;;1.50;;
21110;SDS011;10713;51.912;4.494;2022-12-07T00:37:00;6.68;;;1.95;;
21110;SDS011;10713;51.912;4.494;2022-12-07T00:39:26;4.68;;;1.40;;
21110;SDS011;10713;51.912;4.494;2022-12-07T00:41:52;4.55;;;1.25;;
21110;SDS011;10713;51.912;4.494;2022-12-07T00:44:17;7.78;;;1.40;;
21110;SDS011;10713;51.912;4.494;2022-12-07T00:46:42;4.72;;;1.15;;
21110;SDS011;10713;51.912;4.494;2022-12-07T00:49:08;2.85;;;1.10;;
21110;SDS011;10713;51.912;4.494;2022-12-07T00:51:33;4.25;;;1.20;;
21110;SDS011;10713;51.912;4.494;2022-12-07T00:53:58;4.97;;;1.30;;
21110;SDS011;10713;51.912;4.494;2022-12-07T00:56:25;5.53;;;1.40;;
21110;SDS011;10713;51.912;4.494;2022-12-07T00:58:56;5.22;;;1.35;;
21110;SDS011;10713;51.912;4.494;2022-12-07T01:01:23;2.80;;;1.17;;
21110;SDS011;10713;51.912;4.494;2022-12-07T01:03:50;8.55;;;1.55;;
21110;SDS011;10713;51.912;4.494;2022-12-07T01:06:16;6.10;;;1.75;;
21110;SDS011;10713;51.912;4.494;2022-12-07T01:08:42;4.13;;;1.35;;
21110;SDS011;10713;51.912;4.494;2022-12-07T01:11:09;7.20;;;1.48;;
21110;SDS011;10713;51.912;4.494;2022-12-07T01:13:36;6.47;;;1.50;;
21110;SDS011;10713;51.912;4.494;2022-12-07T01:16:03;5.57;;;1.50;;
21110;SDS011;10713;51.912;4.494;2022-12-07T01:18:31;11.35;;;1.98;;
21110;SDS011;10713;51.912;4.494;2022-12-07T01:20:59;6.10;;;1.33;;
21110;SDS011;10713;51.912;4.494;2022-12-07T01:23:25;5.80;;;1.20;;
21110;SDS011;10713;51.912;4.494;2022-12-07T01:25:55;8.00;;;1.60;;
21110;SDS011;10713;51.912;4.494;2022-12-07T01:28:21;9.10;;;1.35;;
21110;SDS011;10713;51.912;4.494;2022-12-07T01:30:54;4.65;;;0.80;;
21110;SDS011;10713;51.912;4.494;2022-12-07T01:33:28;11.07;;;1.45;;
21110;SDS011;10713;51.912;4.494;2022-12-07T01:36:00;4.22;;;1.35;;
21110;SDS011;10713;51.912;4.494;2022-12-07T01:38:46;7.07;;;1.65;;
21110;SDS011;10713;51.912;4.494;2022-12-07T01:41:13;7.28;;;1.00;;
21110;SDS011;10713;51.912;4.494;2022-12-07T01:46:57;11.40;;;1.27;;
21110;SDS011;10713;51.912;4.494;2022-12-07T01:49:26;10.38;;;1.58;;
21110;SDS011;10713;51.912;4.494;2022-12-07T01:54:52;9.95;;;1.42;;
21110;SDS011;10713;51.912;4.494;2022-12-07T01:57:22;8.05;;;1.15;;
21110;SDS011;10713;51.912;4.494;2022-12-07T01:59:48;3.63;;;1.20;;
21110;SDS011;10713;51.912;4.494;2022-12-07T02:02:35;5.05;;;1.58;;
21110;SDS011;10713;51.912;4.494;2022-12-07T02:05:04;9.27;;;1.45;;
21110;SDS011;10713;51.912;4.494;2022-12-07T02:07:31;14.68;;;1.58;;
21110;SDS011;10713;51.912;4.494;2022-12-07T02:10:15;6.53;;;1.05;;
21110;SDS011;10713;51.912;4.494;2022-12-07T02:12:42;3.83;;;0.77;;
21110;SDS011;10713;51.912;4.494;2022-12-07T02:15:10;6.72;;;1.00;;
21110;SDS011;10713;51.912;4.494;2022-12-07T02:17:39;5.68;;;1.10;;
21110;SDS011;10713;51.912;4.494;2022-12-07T02:26:02;6.88;;;1.42;;
21110;SDS011;10713;51.912;4.494;2022-12-07T02:28:56;7.90;;;1.27;;
21110;SDS011;10713;51.912;4.494;2022-12-07T02:31:26;4.15;;;1.10;;
21110;SDS011;10713;51.912;4.494;2022-12-07T02:34:05;8.20;;;1.10;;
21110;SDS011;10713;51.912;4.494;2022-12-07T02:36:41;3.42;;;1.08;;
21110;SDS011;10713;51.912;4.494;2022-12-07T02:41:43;11.23;;;1.30;;
21110;SDS011;10713;51.912;4.494;2022-12-07T02:44:13;6.78;;;0.95;;
21110;SDS011;10713;51.912;4.494;2022-12-07T02:46:54;6.90;;;1.05;;
21110;SDS011;10713;51.912;4.494;2022-12-07T02:49:22;6.20;;;1.10;;
21110;SDS011;10713;51.912;4.494;2022-12-07T02:51:49;3.67;;;1.20;;
21110;SDS011;10713;51.912;4.494;2022-12-07T02:54:17;12.15;;;1.40;;
21110;SDS011;10713;51.912;4.494;2022-12-07T03:08:03;9.90;;;1.33;;
21110;SDS011;10713;51.912;4.494;2022-12-07T03:13:09;5.78;;;0.98;;
21110;SDS011;10713;51.912;4.494;2022-12-07T03:18:41;6.28;;;1.13;;
21110;SDS011;10713;51.912;4.494;2022-12-07T03:21:31;5.28;;;0.95;;
21110;SDS011;10713;51.912;4.494;2022-12-07T03:24:04;7.25;;;1.30;;
21110;SDS011;10713;51.912;4.494;2022-12-07T03:26:35;6.97;;;0.93;;
21110;SDS011;10713;51.912;4.494;2022-12-07T03:29:07;5.03;;;1.38;;
21110;SDS011;10713;51.912;4.494;2022-12-07T03:31:43;7.93;;;1.10;;
21110;SDS011;10713;51.912;4.494;2022-12-07T03:34:17;5.43;;;0.75;;
21110;SDS011;10713;51.912;4.494;2022-12-07T03:36:55;10.15;;;1.45;;
21110;SDS011;10713;51.912;4.494;2022-12-07T03:39:30;9.32;;;1.10;;
21110;SDS011;10713;51.912;4.494;2022-12-07T03:41:58;7.45;;;1.05;;
21110;SDS011;10713;51.912;4.494;2022-12-07T03:44:26;2.53;;;0.95;;
21110;SDS011;10713;51.912;4.494;2022-12-07T03:47:42;6.63;;;1.13;;
21110;SDS011;10713;51.912;4.494;2022-12-07T03:49:58;4.97;;;0.95;;
21110;SDS011;10713;51.912;4.494;2022-12-07T03:53:14;6.75;;;0.93;;
21110;SDS011;10713;51.912;4.494;2022-12-07T03:55:20;3.55;;;0.90;;
21110;SDS011;10713;51.912;4.494;2022-12-07T03:57:48;5.88;;;1.13;;
21110;SDS011;10713;51.912;4.494;2022-12-07T04:00:16;2.65;;;0.90;;
21110;SDS011;10713;51.912;4.494;2022-12-07T04:02:43;6.05;;;0.80;;
21110;SDS011;10713;51.912;4.494;2022-12-07T04:05:08;2.72;;;1.20;;
21110;SDS011;10713;51.912;4.494;2022-12-07T04:07:35;7.55;;;1.13;;
21110;SDS011;10713;51.912;4.494;2022-12-07T04:10:00;5.60;;;1.10;;
21110;SDS011;10713;51.912;4.494;2022-12-07T04:12:25;4.45;;;0.90;;
21110;SDS011;10713;51.912;4.494;2022-12-07T04:14:51;4.32;;;0.95;;
21110;SDS011;10713;51.912;4.494;2022-12-07T04:17:16;2.90;;;0.63;;
21110;SDS011;10713;51.912;4.494;2022-12-07T04:19:41;7.50;;;1.05;;
21110;SDS011;10713;51.912;4.494;2022-12-07T04:22:07;5.93;;;0.80;;
21110;SDS011;10713;51.912;4.494;2022-12-07T04:24:32;4.15;;;0.88;;
21110;SDS011;10713;51.912;4.494;2022-12-07T04:26:59;7.45;;;1.10;;
21110;SDS011;10713;51.912;4.494;2022-12-07T04:29:25;5.15;;;1.30;;
21110;SDS011;10713;51.912;4.494;2022-12-07T04:31:51;9.57;;;1.40;;
21110;SDS011;10713;51.912;4.494;2022-12-07T04:34:17;6.78;;;1.10;;
21110;SDS011;10713;51.912;4.494;2022-12-07T04:36:43;5.35;;;1.05;;
21110;SDS011;10713;51.912;4.494;2022-12-07T04:39:21;4.07;;;0.90;;
21110;SDS011;10713;51.912;4.494;2022-12-07T04:41:48;9.80;;;1.30;;
21110;SDS011;10713;51.912;4.494;2022-12-07T04:44:14;8.40;;;1.52;;
21110;SDS011;10713;51.912;4.494;2022-12-07T04:46:40;8.18;;;1.30;;
21110;SDS011;10713;51.912;4.494;2022-12-07T04:49:06;6.38;;;1.23;;
21110;SDS011;10713;51.912;4.494;2022-12-07T04:51:31;6.70;;;1.23;;
21110;SDS011;10713;51.912;4.494;2022-12-07T04:53:57;4.72;;;1.02;;
21110;SDS011;10713;51.912;4.494;2022-12-07T04:56:23;5.90;;;1.10;;
21110;SDS011;10713;51.912;4.494;2022-12-07T04:58:50;6.40;;;1.35;;
21110;SDS011;10713;51.912;4.494;2022-12-07T05:01:17;7.30;;;1.48;;
21110;SDS011;10713;51.912;4.494;2022-12-07T05:03:43;6.03;;;1.42;;
21110;SDS011;10713;51.912;4.494;2022-12-07T05:06:10;6.97;;;1.27;;
21110;SDS011;10713;51.912;4.494;2022-12-07T05:08:36;5.55;;;1.05;;
21110;SDS011;10713;51.912;4.494;2022-12-07T05:11:02;5.68;;;1.13;;
21110;SDS011;10713;51.912;4.494;2022-12-07T05:13:30;9.02;;;1.42;;
21110;SDS011;10713;51.912;4.494;2022-12-07T05:15:56;12.90;;;1.40;;
21110;SDS011;10713;51.912;4.494;2022-12-07T05:18:22;5.80;;;1.42;;
21110;SDS011;10713;51.912;4.494;2022-12-07T05:20:47;8.35;;;1.83;;
21110;SDS011;10713;51.912;4.494;2022-12-07T05:23:13;11.32;;;1.52;;
21110;SDS011;10713;51.912;4.494;2022-12-07T05:25:38;6.80;;;1.48;;
21110;SDS011;10713;51.912;4.494;2022-12-07T05:28:04;11.82;;;1.85;;
21110;SDS011;10713;51.912;4.494;2022-12-07T05:30:30;11.65;;;2.20;;
21110;SDS011;10713;51.912;4.494;2022-12-07T05:32:55;8.88;;;1.80;;
21110;SDS011;10713;51.912;4.494;2022-12-07T05:35:21;8.52;;;1.60;;
21110;SDS011;10713;51.912;4.494;2022-12-07T05:37:46;8.75;;;1.27;;
21110;SDS011;10713;51.912;4.494;2022-12-07T05:40:12;6.32;;;1.40;;
21110;SDS011;10713;51.912;4.494;2022-12-07T05:42:39;7.75;;;1.42;;
21110;SDS011;10713;51.912;4.494;2022-12-07T05:45:05;7.13;;;1.75;;
21110;SDS011;10713;51.912;4.494;2022-12-07T05:47:32;7.13;;;1.33;;
21110;SDS011;10713;51.912;4.494;2022-12-07T05:49:57;4.15;;;1.48;;
21110;SDS011;10713;51.912;4.494;2022-12-07T05:52:22;6.20;;;1.30;;
21110;SDS011;10713;51.912;4.494;2022-12-07T05:54:48;7.32;;;1.42;;
21110;SDS011;10713;51.912;4.494;2022-12-07T05:57:13;6.97;;;1.10;;
21110;SDS011;10713;51.912;4.494;2022-12-07T05:59:39;5.30;;;1.42;;
21110;SDS011;10713;51.912;4.494;2022-12-07T06:02:06;6.45;;;1.70;;
21110;SDS011;10713;51.912;4.494;2022-12-07T06:04:34;11.50;;;1.85;;
21110;SDS011;10713;51.912;4.494;2022-12-07T06:07:02;11.15;;;1.35;;
21110;SDS011;10713;51.912;4.494;2022-12-07T06:09:28;7.88;;;1.77;;
21110;SDS011;10713;51.912;4.494;2022-12-07T06:11:54;10.30;;;1.60;;
21110;SDS011;10713;51.912;4.494;2022-12-07T06:14:39;18.52;;;1.75;;
21110;SDS011;10713;51.912;4.494;2022-12-07T06:17:05;8.55;;;1.90;;
21110;SDS011;10713;51.912;4.494;2022-12-07T06:19:31;8.30;;;1.77;;
21110;SDS011;10713;51.912;4.494;2022-12-07T06:21:56;11.00;;;2.05;;
21110;SDS011;10713;51.912;4.494;2022-12-07T06:24:22;8.60;;;1.73;;
21110;SDS011;10713;51.912;4.494;2022-12-07T06:26:48;5.55;;;1.60;;
21110;SDS011;10713;51.912;4.494;2022-12-07T06:29:13;7.75;;;1.63;;
21110;SDS011;10713;51.912;4.494;2022-12-07T06:31:39;13.07;;;1.75;;
21110;SDS011;10713;51.912;4.494;2022-12-07T06:34:06;13.23;;;1.65;;
21110;SDS011;10713;51.912;4.494;2022-12-07T06:36:34;9.07;;;1.98;;
21110;SDS011;10713;51.912;4.494;2022-12-07T06:39:00;7.82;;;1.67;;
21110;SDS011;10713;51.912;4.494;2022-12-07T06:41:26;11.10;;;2.13;;
21110;SDS011;10713;51.912;4.494;2022-12-07T06:43:51;8.93;;;1.63;;
21110;SDS011;10713;51.912;4.494;2022-12-07T06:46:16;11.60;;;1.88;;
21110;SDS011;10713;51.912;4.494;2022-12-07T06:48:42;8.15;;;1.85;;
21110;SDS011;10713;51.912;4.494;2022-12-07T06:51:08;11.25;;;1.95;;
21110;SDS011;10713;51.912;4.494;2022-12-07T06:53:34;12.00;;;1.88;;
21110;SDS011;10713;51.912;4.494;2022-12-07T06:56:00;16.80;;;2.05;;
21110;SDS011;10713;51.912;4.494;2022-12-07T06:58:26;9.07;;;1.83;;
21110;SDS011;10713;51.912;4.494;2022-12-07T07:00:51;7.40;;;1.85;;
21110;SDS011;10713;51.912;4.494;2022-12-07T07:03:17;18.70;;;3.10;;
21110;SDS011;10713;51.912;4.494;2022-12-07T07:05:42;9.55;;;2.05;;
21110;SDS011;10713;51.912;4.494;2022-12-07T07:08:08;9.05;;;2.00;;
21110;SDS011;10713;51.912;4.494;2022-12-07T07:10:34;9.85;;;1.63;;
21110;SDS011;10713;51.912;4.494;2022-12-07T07:13:00;10.48;;;2.50;;
21110;SDS011;10713;51.912;4.494;2022-12-07T07:15:25;7.50;;;2.63;;
21110;SDS011;10713;51.912;4.494;2022-12-07T07:17:51;11.82;;;2.55;;
21110;SDS011;10713;51.912;4.494;2022-12-07T07:20:16;16.42;;;2.30;;
21110;SDS011;10713;51.912;4.494;2022-12-07T07:22:42;8.88;;;1.90;;
21110;SDS011;10713;51.912;4.494;2022-12-07T07:25:07;7.47;;;2.47;;
21110;SDS011;10713;51.912;4.494;2022-12-07T07:27:33;12.75;;;2.35;;
21110;SDS011;10713;51.912;4.494;2022-12-07T07:29:58;8.05;;;2.60;;
21110;SDS011;10713;51.912;4.494;2022-12-07T07:32:23;10.52;;;2.35;;
21110;SDS011;10713;51.912;4.494;2022-12-07T07:34:49;10.02;;;2.75;;
21110;SDS011;10713;51.912;4.494;2022-12-07T07:37:14;9.90;;;2.60;;
21110;SDS011;10713;51.912;4.494;2022-12-07T07:39:40;10.02;;;2.58;;
21110;SDS011;10713;51.912;4.494;2022-12-07T07:42:05;12.68;;;3.47;;
21110;SDS011;10713;51.912;4.494;2022-12-07T07:44:32;10.55;;;2.97;;
21110;SDS011;10713;51.912;4.494;2022-12-07T07:46:58;12.80;;;2.90;;
21110;SDS011;10713;51.912;4.494;2022-12-07T07:49:23;13.18;;;2.15;;
21110;SDS011;10713;51.912;4.494;2022-12-07T07:51:48;12.32;;;2.45;;
21110;SDS011;10713;51.912;4.494;2022-12-07T07:54:14;9.23;;;2.60;;
21110;SDS011;10713;51.912;4.494;2022-12-07T07:56:39;9.23;;;2.22;;
21110;SDS011;10713;51.912;4.494;2022-12-07T07:59:04;8.57;;;2.20;;
21110;SDS011;10713;51.912;4.494;2022-12-07T08:01:30;11.25;;;2.58;;
21110;SDS011;10713;51.912;4.494;2022-12-07T08:03:55;12.65;;;3.03;;
21110;SDS011;10713;51.912;4.494;2022-12-07T08:06:20;7.45;;;1.83;;
21110;SDS011;10713;51.912;4.494;2022-12-07T08:08:46;9.82;;;2.33;;
21110;SDS011;10713;51.912;4.494;2022-12-07T08:11:11;9.65;;;1.77;;
21110;SDS011;10713;51.912;4.494;2022-12-07T08:13:37;20.75;;;2.60;;
21110;SDS011;10713;51.912;4.494;2022-12-07T08:16:06;4.95;;;2.00;;
21110;SDS011;10713;51.912;4.494;2022-12-07T08:18:34;7.28;;;1.73;;
21110;SDS011;10713;51.912;4.494;2022-12-07T08:21:01;8.50;;;1.95;;
21110;SDS011;10713;51.912;4.494;2022-12-07T08:23:27;12.15;;;2.45;;
21110;SDS011;10713;51.912;4.494;2022-12-07T08:25:53;22.42;;;3.33;;
21110;SDS011;10713;51.912;4.494;2022-12-07T08:28:18;14.88;;;2.65;;
21110;SDS011;10713;51.912;4.494;2022-12-07T08:30:43;11.18;;;2.97;;
21110;SDS011;10713;51.912;4.494;2022-12-07T08:33:09;14.38;;;3.10;;
21110;SDS011;10713;51.912;4.494;2022-12-07T08:35:35;12.35;;;2.85;;
21110;SDS011;10713;51.912;4.494;2022-12-07T08:38:01;18.42;;;3.30;;
21110;SDS011;10713;51.912;4.494;2022-12-07T08:40:27;32.50;;;6.00;;
21110;SDS011;10713;51.912;4.494;2022-12-07T08:42:53;16.35;;;2.72;;
21110;SDS011;10713;51.912;4.494;2022-12-07T08:45:19;12.27;;;2.42;;
21110;SDS011;10713;51.912;4.494;2022-12-07T08:47:47;10.57;;;2.17;;
21110;SDS011;10713;51.912;4.494;2022-12-07T08:50:35;7.95;;;1.92;;
21110;SDS011;10713;51.912;4.494;2022-12-07T08:53:02;18.02;;;3.65;;
21110;SDS011;10713;51.912;4.494;2022-12-07T08:55:29;7.70;;;1.90;;
21110;SDS011;10713;51.912;4.494;2022-12-07T08:57:56;8.35;;;1.70;;
21110;SDS011;10713;51.912;4.494;2022-12-07T09:00:24;7.20;;;1.70;;
21110;SDS011;10713;51.912;4.494;2022-12-07T09:02:50;9.48;;;1.88;;
21110;SDS011;10713;51.912;4.494;2022-12-07T09:05:16;9.98;;;2.20;;
21110;SDS011;10713;51.912;4.494;2022-12-07T09:07:42;8.93;;;2.20;;
21110;SDS011;10713;51.912;4.494;2022-12-07T09:10:11;8.10;;;2.13;;
21110;SDS011;10713;51.912;4.494;2022-12-07T09:12:36;7.65;;;1.80;;
21110;SDS011;10713;51.912;4.494;2022-12-07T09:15:02;10.43;;;1.70;;
21110;SDS011;10713;51.912;4.494;2022-12-07T09:17:31;7.75;;;1.90;;
21110;SDS011;10713;51.912;4.494;2022-12-07T09:19:58;7.65;;;2.20;;
21110;SDS011;10713;51.912;4.494;2022-12-07T09:22:23;6.72;;;1.85;;
21110;SDS011;10713;51.912;4.494;2022-12-07T09:24:48;9.60;;;2.42;;
21110;SDS011;10713;51.912;4.494;2022-12-07T09:27:14;12.75;;;2.50;;
21110;SDS011;10713;51.912;4.494;2022-12-07T09:29:39;16.98;;;4.05;;
21110;SDS011;10713;51.912;4.494;2022-12-07T09:32:04;7.53;;;2.00;;
21110;SDS011;10713;51.912;4.494;2022-12-07T09:34:31;12.52;;;3.38;;
21110;SDS011;10713;51.912;4.494;2022-12-07T09:36:57;7.45;;;2.53;;
21110;SDS011;10713;51.912;4.494;2022-12-07T09:39:23;6.80;;;1.73;;
21110;SDS011;10713;51.912;4.494;2022-12-07T09:41:48;6.78;;;1.77;;
21110;SDS011;10713;51.912;4.494;2022-12-07T09:44:16;14.98;;;2.90;;
21110;SDS011;10713;51.912;4.494;2022-12-07T09:46:46;21.30;;;3.92;;
21110;SDS011;10713;51.912;4.494;2022-12-07T09:49:22;8.65;;;2.72;;
21110;SDS011;10713;51.912;4.494;2022-12-07T09:52:01;10.25;;;2.35;;
21110;SDS011;10713;51.912;4.494;2022-12-07T09:54:30;8.85;;;2.58;;
21110;SDS011;10713;51.912;4.494;2022-12-07T09:56:58;17.50;;;3.55;;
21110;SDS011;10713;51.912;4.494;2022-12-07T09:59:24;7.07;;;2.05;;
21110;SDS011;10713;51.912;4.494;2022-12-07T10:01:50;6.82;;;2.10;;
21110;SDS011;10713;51.912;4.494;2022-12-07T10:04:17;15.27;;;2.75;;
21110;SDS011;10713;51.912;4.494;2022-12-07T10:06:45;11.05;;;1.70;;
21110;SDS011;10713;51.912;4.494;2022-12-07T10:09:13;4.10;;;1.48;;
21110;SDS011;10713;51.912;4.494;2022-12-07T10:14:30;5.90;;;1.70;;
21110;SDS011;10713;51.912;4.494;2022-12-07T10:16:57;4.78;;;1.40;;
21110;SDS011;10713;51.912;4.494;2022-12-07T10:22:32;5.72;;;1.63;;
21110;SDS011;10713;51.912;4.494;2022-12-07T10:24:41;10.55;;;1.70;;
21110;SDS011;10713;51.912;4.494;2022-12-07T10:27:30;10.82;;;2.00;;
21110;SDS011;10713;51.912;4.494;2022-12-07T10:29:56;5.45;;;2.00;;
21110;SDS011;10713;51.912;4.494;2022-12-07T10:32:33;5.30;;;1.83;;
21110;SDS011;10713;51.912;4.494;2022-12-07T10:37:47;7.03;;;1.85;;
21110;SDS011;10713;51.912;4.494;2022-12-07T10:40:34;8.48;;;2.00;;
21110;SDS011;10713;51.912;4.494;2022-12-07T10:43:01;7.43;;;1.92;;
21110;SDS011;10713;51.912;4.494;2022-12-07T10:48:21;9.52;;;2.20;;
21110;SDS011;10713;51.912;4.494;2022-12-07T10:53:28;11.90;;;2.60;;
21110;SDS011;10713;51.912;4.494;2022-12-07T11:04:18;27.75;;;3.10;;
21110;SDS011;10713;51.912;4.494;2022-12-07T11:12:36;8.25;;;1.80;;
21110;SDS011;10713;51.912;4.494;2022-12-07T11:20:41;5.68;;;1.42;;
21110;SDS011;10713;51.912;4.494;2022-12-07T11:23:25;8.05;;;1.52;;
21110;SDS011;10713;51.912;4.494;2022-12-07T11:34:43;4.88;;;1.20;;
21110;SDS011;10713;51.912;4.494;2022-12-07T11:37:18;8.50;;;1.60;;
21110;SDS011;10713;51.912;4.494;2022-12-07T11:39:56;7.22;;;1.33;;
21110;SDS011;10713;51.912;4.494;2022-12-07T11:42:30;9.60;;;1.50;;
21110;SDS011;10713;51.912;4.494;2022-12-07T11:47:53;9.80;;;1.50;;
21110;SDS011;10713;51.912;4.494;2022-12-07T11:53:10;5.05;;;1.20;;
21110;SDS011;10713;51.912;4.494;2022-12-07T11:55:44;5.35;;;1.10;;
21110;SDS011;10713;51.912;4.494;2022-12-07T12:01:05;3.30;;;0.88;;
21110;SDS011;10713;51.912;4.494;2022-12-07T12:03:49;2.05;;;0.75;;
21110;SDS011;10713;51.912;4.494;2022-12-07T12:06:17;6.00;;;1.00;;
21110;SDS011;10713;51.912;4.494;2022-12-07T12:14:05;15.38;;;2.67;;
21110;SDS011;10713;51.912;4.494;2022-12-07T12:24:44;7.07;;;1.60;;
21110;SDS011;10713;51.912;4.494;2022-12-07T12:27:31;7.95;;;1.77;;
21110;SDS011;10713;51.912;4.494;2022-12-07T12:30:04;6.57;;;1.40;;
21110;SDS011;10713;51.912;4.494;2022-12-07T12:32:41;4.00;;;1.25;;
21110;SDS011;10713;51.912;4.494;2022-12-07T12:35:26;7.10;;;1.40;;
21110;SDS011;10713;51.912;4.494;2022-12-07T12:40:51;8.43;;;1.73;;
21110;SDS011;10713;51.912;4.494;2022-12-07T12:51:55;4.75;;;1.30;;
21110;SDS011;10713;51.912;4.494;2022-12-07T12:54:29;9.70;;;1.35;;
21110;SDS011;10713;51.912;4.494;2022-12-07T13:10:36;5.60;;;1.30;;
21110;SDS011;10713;51.912;4.494;2022-12-07T13:26:17;13.27;;;1.67;;
21110;SDS011;10713;51.912;4.494;2022-12-07T13:28:52;10.25;;;1.90;;
21110;SDS011;10713;51.912;4.494;2022-12-07T13:31:32;8.30;;;1.55;;
21110;SDS011;10713;51.912;4.494;2022-12-07T13:34:00;4.00;;;1.65;;
21110;SDS011;10713;51.912;4.494;2022-12-07T13:36:29;12.57;;;2.28;;
21110;SDS011;10713;51.912;4.494;2022-12-07T13:39:09;5.10;;;1.25;;
21110;SDS011;10713;51.912;4.494;2022-12-07T13:41:42;9.80;;;1.92;;
21110;SDS011;10713;51.912;4.494;2022-12-07T13:44:12;4.47;;;0.95;;
21110;SDS011;10713;51.912;4.494;2022-12-07T13:49:21;32.08;;;6.50;;
21110;SDS011;10713;51.912;4.494;2022-12-07T13:51:48;31.48;;;6.43;;
21110;SDS011;10713;51.912;4.494;2022-12-07T13:54:14;80.78;;;15.38;;
21110;SDS011;10713;51.912;4.494;2022-12-07T13:56:40;31.17;;;6.40;;
21110;SDS011;10713;51.912;4.494;2022-12-07T13:59:19;25.42;;;5.03;;
21110;SDS011;10713;51.912;4.494;2022-12-07T14:01:47;9.43;;;2.90;;
21110;SDS011;10713;51.912;4.494;2022-12-07T14:04:30;40.53;;;6.88;;
21110;SDS011;10713;51.912;4.494;2022-12-07T14:06:58;19.38;;;3.63;;
21110;SDS011;10713;51.912;4.494;2022-12-07T14:09:26;16.90;;;4.00;;
21110;SDS011;10713;51.912;4.494;2022-12-07T14:11:54;14.02;;;2.53;;
21110;SDS011;10713;51.912;4.494;2022-12-07T14:14:22;20.75;;;4.63;;
21110;SDS011;10713;51.912;4.494;2022-12-07T14:17:01;13.90;;;2.33;;
21110;SDS011;10713;51.912;4.494;2022-12-07T14:19:47;10.55;;;1.67;;
21110;SDS011;10713;51.912;4.494;2022-12-07T14:22:23;16.25;;;3.28;;
21110;SDS011;10713;51.912;4.494;2022-12-07T14:25:43;11.25;;;2.60;;
21110;SDS011;10713;51.912;4.494;2022-12-07T14:27:51;6.90;;;1.20;;
21110;SDS011;10713;51.912;4.494;2022-12-07T14:30:21;16.40;;;2.42;;
21110;SDS011;10713;51.912;4.494;2022-12-07T14:32:51;9.75;;;2.13;;
21110;SDS011;10713;51.912;4.494;2022-12-07T14:35:18;21.95;;;4.40;;
21110;SDS011;10713;51.912;4.494;2022-12-07T14:37:45;9.82;;;1.73;;
21110;SDS011;10713;51.912;4.494;2022-12-07T14:40:22;8.80;;;2.13;;
21110;SDS011;10713;51.912;4.494;2022-12-07T14:42:50;7.43;;;1.83;;
21110;SDS011;10713;51.912;4.494;2022-12-07T14:45:20;10.02;;;2.75;;
21110;SDS011;10713;51.912;4.494;2022-12-07T14:47:47;7.47;;;2.35;;
21110;SDS011;10713;51.912;4.494;2022-12-07T14:50:13;11.25;;;2.30;;
21110;SDS011;10713;51.912;4.494;2022-12-07T14:52:41;21.33;;;5.18;;
21110;SDS011;10713;51.912;4.494;2022-12-07T14:55:14;16.88;;;2.90;;
21110;SDS011;10713;51.912;4.494;2022-12-07T14:57:47;11.00;;;2.45;;
21110;SDS011;10713;51.912;4.494;2022-12-07T15:00:13;18.80;;;3.00;;
21110;SDS011;10713;51.912;4.494;2022-12-07T15:02:40;6.38;;;2.03;;
21110;SDS011;10713;51.912;4.494;2022-12-07T15:05:06;9.15;;;2.60;;
21110;SDS011;10713;51.912;4.494;2022-12-07T15:07:31;18.92;;;4.38;;
21110;SDS011;10713;51.912;4.494;2022-12-07T15:09:56;9.18;;;2.05;;
21110;SDS011;10713;51.912;4.494;2022-12-07T15:12:22;9.30;;;2.83;;
21110;SDS011;10713;51.912;4.494;2022-12-07T15:14:49;8.70;;;2.13;;
21110;SDS011;10713;51.912;4.494;2022-12-07T15:17:15;12.30;;;2.60;;
21110;SDS011;10713;51.912;4.494;2022-12-07T15:19:40;11.25;;;2.78;;
21110;SDS011;10713;51.912;4.494;2022-12-07T15:22:05;11.60;;;2.75;;
21110;SDS011;10713;51.912;4.494;2022-12-07T15:24:31;11.25;;;2.47;;
21110;SDS011;10713;51.912;4.494;2022-12-07T15:26:58;18.02;;;3.42;;
21110;SDS011;10713;51.912;4.494;2022-12-07T15:29:24;6.07;;;2.47;;
21110;SDS011;10713;51.912;4.494;2022-12-07T15:31:50;17.35;;;3.42;;
21110;SDS011;10713;51.912;4.494;2022-12-07T15:34:15;13.15;;;3.03;;
21110;SDS011;10713;51.912;4.494;2022-12-07T15:36:41;11.77;;;2.85;;
21110;SDS011;10713;51.912;4.494;2022-12-07T15:39:06;9.05;;;1.80;;
21110;SDS011;10713;51.912;4.494;2022-12-07T15:41:33;14.20;;;2.85;;
21110;SDS011;10713;51.912;4.494;2022-12-07T15:43:58;7.18;;;2.03;;
21110;SDS011;10713;51.912;4.494;2022-12-07T15:46:42;12.73;;;2.38;;
21110;SDS011;10713;51.912;4.494;2022-12-07T15:49:26;6.38;;;1.90;;
21110;SDS011;10713;51.912;4.494;2022-12-07T15:51:52;8.60;;;2.47;;
21110;SDS011;10713;51.912;4.494;2022-12-07T15:54:19;10.20;;;2.30;;
21110;SDS011;10713;51.912;4.494;2022-12-07T15:56:46;14.27;;;2.45;;
21110;SDS011;10713;51.912;4.494;2022-12-07T15:59:12;9.90;;;2.95;;
21110;SDS011;10713;51.912;4.494;2022-12-07T16:01:37;10.30;;;2.80;;
21110;SDS011;10713;51.912;4.494;2022-12-07T16:04:03;11.27;;;2.63;;
21110;SDS011;10713;51.912;4.494;2022-12-07T16:06:28;9.40;;;2.78;;
21110;SDS011;10713;51.912;4.494;2022-12-07T16:08:53;9.32;;;2.92;;
21110;SDS011;10713;51.912;4.494;2022-12-07T16:11:19;9.35;;;2.50;;
21110;SDS011;10713;51.912;4.494;2022-12-07T16:13:45;9.15;;;2.88;;
21110;SDS011;10713;51.912;4.494;2022-12-07T16:16:12;13.45;;;3.28;;
21110;SDS011;10713;51.912;4.494;2022-12-07T16:18:39;13.68;;;2.95;;
21110;SDS011;10713;51.912;4.494;2022-12-07T16:21:04;12.05;;;2.50;;
21110;SDS011;10713;51.912;4.494;2022-12-07T16:23:30;10.98;;;2.58;;
21110;SDS011;10713;51.912;4.494;2022-12-07T16:26:03;9.98;;;2.67;;
21110;SDS011;10713;51.912;4.494;2022-12-07T16:28:40;8.80;;;2.03;;
21110;SDS011;10713;51.912;4.494;2022-12-07T16:31:07;14.70;;;2.42;;
21110;SDS011;10713;51.912;4.494;2022-12-07T16:33:35;7.07;;;2.10;;
21110;SDS011;10713;51.912;4.494;2022-12-07T16:36:03;9.27;;;3.25;;
21110;SDS011;10713;51.912;4.494;2022-12-07T16:38:29;13.05;;;1.92;;
21110;SDS011;10713;51.912;4.494;2022-12-07T16:40:55;8.02;;;1.90;;
21110;SDS011;10713;51.912;4.494;2022-12-07T16:43:20;7.30;;;1.83;;
21110;SDS011;10713;51.912;4.494;2022-12-07T16:45:46;10.63;;;1.98;;
21110;SDS011;10713;51.912;4.494;2022-12-07T16:48:12;10.45;;;2.50;;
21110;SDS011;10713;51.912;4.494;2022-12-07T16:50:39;6.95;;;1.85;;
21110;SDS011;10713;51.912;4.494;2022-12-07T16:53:06;4.72;;;1.50;;
21110;SDS011;10713;51.912;4.494;2022-12-07T16:55:35;9.55;;;2.38;;
21110;SDS011;10713;51.912;4.494;2022-12-07T16:58:01;6.30;;;2.03;;
21110;SDS011;10713;51.912;4.494;2022-12-07T17:00:27;8.63;;;2.47;;
21110;SDS011;10713;51.912;4.494;2022-12-07T17:02:52;8.63;;;2.33;;
21110;SDS011;10713;51.912;4.494;2022-12-07T17:05:20;9.75;;;2.08;;
21110;SDS011;10713;51.912;4.494;2022-12-07T17:07:45;10.23;;;2.35;;